Aviation Digital Data Service (ADDS)

Output produced by TAFs form (1635 UTC 24 April 2014)
found at http://aviationweather.gov/adds/tafs/
 
KCNM 241509Z 2415/2512 31011KT P6SM SKC 
     TEMPO 2415/2417 33014G24KT 5SM BLDU 
     FM241800 35010KT P6SM SKC 
     FM250100 17007KT P6SM SKC